sensor_id;sensor_type;location;lat;lon;timestamp;P1;durP1;ratioP1;P2;durP2;ratioP2
10503;SDS011;5299;48.704;9.138;2022-07-29T00:02:07;6.20;;;5.35;;
10503;SDS011;5299;48.704;9.138;2022-07-29T00:06:09;7.07;;;5.53;;
10503;SDS011;5299;48.704;9.138;2022-07-29T00:10:10;6.28;;;5.03;;
10503;SDS011;5299;48.704;9.138;2022-07-29T00:14:12;8.07;;;6.93;;
10503;SDS011;5299;48.704;9.138;2022-07-29T00:18:14;8.13;;;5.68;;
10503;SDS011;5299;48.704;9.138;2022-07-29T00:22:16;8.70;;;7.22;;
10503;SDS011;5299;48.704;9.138;2022-07-29T00:26:19;6.72;;;5.35;;
10503;SDS011;5299;48.704;9.138;2022-07-29T00:30:22;6.80;;;5.45;;
10503;SDS011;5299;48.704;9.138;2022-07-29T00:34:24;10.77;;;6.90;;
10503;SDS011;5299;48.704;9.138;2022-07-29T00:38:44;7.20;;;5.85;;
10503;SDS011;5299;48.704;9.138;2022-07-29T00:42:48;6.35;;;5.38;;
10503;SDS011;5299;48.704;9.138;2022-07-29T00:46:50;6.63;;;5.32;;
10503;SDS011;5299;48.704;9.138;2022-07-29T00:50:52;6.40;;;5.70;;
10503;SDS011;5299;48.704;9.138;2022-07-29T00:54:54;9.80;;;5.57;;
10503;SDS011;5299;48.704;9.138;2022-07-29T00:58:55;7.72;;;5.38;;
10503;SDS011;5299;48.704;9.138;2022-07-29T01:02:58;8.02;;;6.05;;
10503;SDS011;5299;48.704;9.138;2022-07-29T01:07:00;7.03;;;5.38;;
10503;SDS011;5299;48.704;9.138;2022-07-29T01:11:03;8.27;;;5.65;;
10503;SDS011;5299;48.704;9.138;2022-07-29T01:15:05;7.10;;;5.20;;
10503;SDS011;5299;48.704;9.138;2022-07-29T01:19:22;7.00;;;5.28;;
10503;SDS011;5299;48.704;9.138;2022-07-29T01:24:14;7.88;;;5.70;;
10503;SDS011;5299;48.704;9.138;2022-07-29T01:33:18;7.28;;;5.75;;
10503;SDS011;5299;48.704;9.138;2022-07-29T01:37:44;9.90;;;5.75;;
10503;SDS011;5299;48.704;9.138;2022-07-29T01:46:13;12.02;;;4.72;;
10503;SDS011;5299;48.704;9.138;2022-07-29T01:50:16;6.55;;;5.55;;
10503;SDS011;5299;48.704;9.138;2022-07-29T01:58:20;7.30;;;5.05;;
10503;SDS011;5299;48.704;9.138;2022-07-29T02:02:22;7.20;;;4.85;;
10503;SDS011;5299;48.704;9.138;2022-07-29T02:06:24;5.25;;;4.55;;
10503;SDS011;5299;48.704;9.138;2022-07-29T02:10:27;5.70;;;4.65;;
10503;SDS011;5299;48.704;9.138;2022-07-29T02:14:33;6.10;;;4.75;;
10503;SDS011;5299;48.704;9.138;2022-07-29T02:18:39;7.63;;;4.22;;
10503;SDS011;5299;48.704;9.138;2022-07-29T02:22:43;6.00;;;4.88;;
10503;SDS011;5299;48.704;9.138;2022-07-29T02:26:45;5.93;;;4.50;;
10503;SDS011;5299;48.704;9.138;2022-07-29T02:30:47;4.70;;;3.80;;
10503;SDS011;5299;48.704;9.138;2022-07-29T02:34:50;6.40;;;4.78;;
10503;SDS011;5299;48.704;9.138;2022-07-29T02:38:52;5.15;;;4.13;;
10503;SDS011;5299;48.704;9.138;2022-07-29T02:42:58;5.65;;;4.70;;
10503;SDS011;5299;48.704;9.138;2022-07-29T02:51:27;6.90;;;4.57;;
10503;SDS011;5299;48.704;9.138;2022-07-29T03:00:19;7.00;;;4.50;;
10503;SDS011;5299;48.704;9.138;2022-07-29T03:04:22;4.93;;;3.72;;
10503;SDS011;5299;48.704;9.138;2022-07-29T03:08:26;5.63;;;3.63;;
10503;SDS011;5299;48.704;9.138;2022-07-29T03:12:28;5.82;;;4.20;;
10503;SDS011;5299;48.704;9.138;2022-07-29T03:16:30;6.03;;;3.70;;
10503;SDS011;5299;48.704;9.138;2022-07-29T03:20:32;6.20;;;3.92;;
10503;SDS011;5299;48.704;9.138;2022-07-29T03:24:34;5.32;;;4.28;;
10503;SDS011;5299;48.704;9.138;2022-07-29T03:28:36;5.10;;;3.83;;
10503;SDS011;5299;48.704;9.138;2022-07-29T03:32:39;6.60;;;4.50;;
10503;SDS011;5299;48.704;9.138;2022-07-29T03:36:45;5.07;;;3.65;;
10503;SDS011;5299;48.704;9.138;2022-07-29T03:40:48;5.72;;;3.92;;
10503;SDS011;5299;48.704;9.138;2022-07-29T03:44:51;6.65;;;4.10;;
10503;SDS011;5299;48.704;9.138;2022-07-29T03:48:55;5.75;;;3.83;;
10503;SDS011;5299;48.704;9.138;2022-07-29T03:53:00;6.95;;;4.03;;
10503;SDS011;5299;48.704;9.138;2022-07-29T03:57:02;5.95;;;4.40;;
10503;SDS011;5299;48.704;9.138;2022-07-29T04:01:04;5.20;;;3.83;;
10503;SDS011;5299;48.704;9.138;2022-07-29T04:05:11;6.53;;;3.95;;
10503;SDS011;5299;48.704;9.138;2022-07-29T04:09:13;7.35;;;4.40;;
10503;SDS011;5299;48.704;9.138;2022-07-29T04:13:15;6.80;;;4.82;;
10503;SDS011;5299;48.704;9.138;2022-07-29T04:17:16;6.35;;;4.80;;
10503;SDS011;5299;48.704;9.138;2022-07-29T04:21:18;6.35;;;4.53;;
10503;SDS011;5299;48.704;9.138;2022-07-29T04:25:19;7.78;;;4.50;;
10503;SDS011;5299;48.704;9.138;2022-07-29T04:29:21;6.95;;;4.30;;
10503;SDS011;5299;48.704;9.138;2022-07-29T04:33:22;5.93;;;3.97;;
10503;SDS011;5299;48.704;9.138;2022-07-29T04:37:25;5.80;;;4.10;;
10503;SDS011;5299;48.704;9.138;2022-07-29T04:41:27;6.18;;;4.38;;
10503;SDS011;5299;48.704;9.138;2022-07-29T04:45:33;4.68;;;3.60;;
10503;SDS011;5299;48.704;9.138;2022-07-29T04:49:37;6.10;;;3.95;;
10503;SDS011;5299;48.704;9.138;2022-07-29T04:53:39;5.38;;;3.92;;
10503;SDS011;5299;48.704;9.138;2022-07-29T04:57:41;6.32;;;4.10;;
10503;SDS011;5299;48.704;9.138;2022-07-29T05:01:42;5.20;;;3.55;;
10503;SDS011;5299;48.704;9.138;2022-07-29T05:05:44;4.68;;;3.30;;
10503;SDS011;5299;48.704;9.138;2022-07-29T05:09:45;5.30;;;3.53;;
10503;SDS011;5299;48.704;9.138;2022-07-29T05:13:47;4.82;;;3.50;;
10503;SDS011;5299;48.704;9.138;2022-07-29T05:17:49;5.18;;;3.38;;
10503;SDS011;5299;48.704;9.138;2022-07-29T05:21:50;5.40;;;2.92;;
10503;SDS011;5299;48.704;9.138;2022-07-29T05:25:52;4.45;;;2.83;;
10503;SDS011;5299;48.704;9.138;2022-07-29T05:29:53;3.92;;;2.75;;
10503;SDS011;5299;48.704;9.138;2022-07-29T05:33:58;4.38;;;3.05;;
10503;SDS011;5299;48.704;9.138;2022-07-29T05:38:00;7.72;;;2.97;;
10503;SDS011;5299;48.704;9.138;2022-07-29T05:42:17;5.17;;;3.40;;
10503;SDS011;5299;48.704;9.138;2022-07-29T05:46:28;4.75;;;2.78;;
10503;SDS011;5299;48.704;9.138;2022-07-29T05:50:42;4.72;;;3.10;;
10503;SDS011;5299;48.704;9.138;2022-07-29T05:54:48;4.88;;;3.22;;
10503;SDS011;5299;48.704;9.138;2022-07-29T05:58:53;4.60;;;3.10;;
10503;SDS011;5299;48.704;9.138;2022-07-29T06:03:01;4.63;;;2.40;;
10503;SDS011;5299;48.704;9.138;2022-07-29T06:07:10;3.97;;;2.70;;
10503;SDS011;5299;48.704;9.138;2022-07-29T06:11:12;5.45;;;3.38;;
10503;SDS011;5299;48.704;9.138;2022-07-29T06:15:14;3.72;;;2.45;;
10503;SDS011;5299;48.704;9.138;2022-07-29T06:19:16;6.70;;;3.03;;
10503;SDS011;5299;48.704;9.138;2022-07-29T06:23:27;7.03;;;2.72;;
10503;SDS011;5299;48.704;9.138;2022-07-29T06:27:29;4.45;;;2.83;;
10503;SDS011;5299;48.704;9.138;2022-07-29T06:31:31;4.93;;;2.95;;
10503;SDS011;5299;48.704;9.138;2022-07-29T06:35:33;5.63;;;2.78;;
10503;SDS011;5299;48.704;9.138;2022-07-29T06:39:42;3.75;;;2.60;;
10503;SDS011;5299;48.704;9.138;2022-07-29T06:43:44;6.15;;;2.80;;
10503;SDS011;5299;48.704;9.138;2022-07-29T06:47:55;5.50;;;2.97;;
10503;SDS011;5299;48.704;9.138;2022-07-29T06:51:58;5.68;;;2.90;;
10503;SDS011;5299;48.704;9.138;2022-07-29T06:56:17;4.63;;;3.13;;
10503;SDS011;5299;48.704;9.138;2022-07-29T07:00:24;7.22;;;3.28;;
10503;SDS011;5299;48.704;9.138;2022-07-29T07:04:36;4.70;;;2.95;;
10503;SDS011;5299;48.704;9.138;2022-07-29T07:14:11;5.30;;;3.30;;
10503;SDS011;5299;48.704;9.138;2022-07-29T07:18:44;6.57;;;3.95;;
10503;SDS011;5299;48.704;9.138;2022-07-29T07:23:05;4.50;;;3.42;;
10503;SDS011;5299;48.704;9.138;2022-07-29T07:27:35;5.53;;;3.80;;
10503;SDS011;5299;48.704;9.138;2022-07-29T07:32:04;5.10;;;3.67;;
10503;SDS011;5299;48.704;9.138;2022-07-29T07:36:06;6.50;;;3.35;;
10503;SDS011;5299;48.704;9.138;2022-07-29T07:40:20;6.35;;;3.63;;
10503;SDS011;5299;48.704;9.138;2022-07-29T07:49:11;6.55;;;3.88;;
10503;SDS011;5299;48.704;9.138;2022-07-29T07:53:24;8.27;;;4.18;;
10503;SDS011;5299;48.704;9.138;2022-07-29T07:58:16;6.60;;;3.63;;
10503;SDS011;5299;48.704;9.138;2022-07-29T08:02:18;8.13;;;4.15;;
10503;SDS011;5299;48.704;9.138;2022-07-29T08:06:20;5.10;;;3.58;;
10503;SDS011;5299;48.704;9.138;2022-07-29T08:10:22;5.13;;;3.67;;
10503;SDS011;5299;48.704;9.138;2022-07-29T08:14:42;7.28;;;3.55;;
10503;SDS011;5299;48.704;9.138;2022-07-29T08:18:44;6.72;;;3.28;;
10503;SDS011;5299;48.704;9.138;2022-07-29T08:22:46;6.22;;;3.17;;
10503;SDS011;5299;48.704;9.138;2022-07-29T08:26:55;5.13;;;4.00;;
10503;SDS011;5299;48.704;9.138;2022-07-29T08:31:30;6.75;;;4.00;;
10503;SDS011;5299;48.704;9.138;2022-07-29T08:36:00;6.30;;;3.63;;
10503;SDS011;5299;48.704;9.138;2022-07-29T08:40:52;8.85;;;3.53;;
10503;SDS011;5299;48.704;9.138;2022-07-29T08:45:02;4.70;;;3.42;;
10503;SDS011;5299;48.704;9.138;2022-07-29T08:49:46;5.80;;;3.22;;
10503;SDS011;5299;48.704;9.138;2022-07-29T08:55:26;6.50;;;3.07;;
10503;SDS011;5299;48.704;9.138;2022-07-29T09:00:23;8.57;;;4.18;;
10503;SDS011;5299;48.704;9.138;2022-07-29T09:04:47;10.43;;;4.65;;
10503;SDS011;5299;48.704;9.138;2022-07-29T09:09:20;4.18;;;3.45;;
10503;SDS011;5299;48.704;9.138;2022-07-29T09:13:23;7.90;;;4.72;;
10503;SDS011;5299;48.704;9.138;2022-07-29T09:17:44;5.35;;;3.65;;
10503;SDS011;5299;48.704;9.138;2022-07-29T09:21:47;5.43;;;4.15;;
10503;SDS011;5299;48.704;9.138;2022-07-29T09:26:07;6.00;;;4.22;;
10503;SDS011;5299;48.704;9.138;2022-07-29T09:30:13;7.65;;;3.50;;
10503;SDS011;5299;48.704;9.138;2022-07-29T09:34:31;9.90;;;4.10;;
10503;SDS011;5299;48.704;9.138;2022-07-29T09:38:38;7.32;;;3.90;;
10503;SDS011;5299;48.704;9.138;2022-07-29T09:42:40;8.27;;;3.97;;
10503;SDS011;5299;48.704;9.138;2022-07-29T09:46:56;4.60;;;3.10;;
10503;SDS011;5299;48.704;9.138;2022-07-29T09:51:17;6.88;;;4.35;;
10503;SDS011;5299;48.704;9.138;2022-07-29T09:55:26;6.22;;;3.55;;
10503;SDS011;5299;48.704;9.138;2022-07-29T09:59:29;7.38;;;3.83;;
10503;SDS011;5299;48.704;9.138;2022-07-29T10:03:30;6.22;;;4.30;;
10503;SDS011;5299;48.704;9.138;2022-07-29T10:07:51;6.35;;;4.00;;
10503;SDS011;5299;48.704;9.138;2022-07-29T10:12:10;7.18;;;4.35;;
10503;SDS011;5299;48.704;9.138;2022-07-29T10:16:15;7.90;;;3.65;;
10503;SDS011;5299;48.704;9.138;2022-07-29T10:20:17;6.32;;;4.00;;
10503;SDS011;5299;48.704;9.138;2022-07-29T10:24:19;7.93;;;4.32;;
10503;SDS011;5299;48.704;9.138;2022-07-29T10:28:21;7.07;;;4.07;;
10503;SDS011;5299;48.704;9.138;2022-07-29T10:32:29;6.30;;;3.92;;
10503;SDS011;5299;48.704;9.138;2022-07-29T10:36:45;6.65;;;3.88;;
10503;SDS011;5299;48.704;9.138;2022-07-29T10:45:36;9.88;;;3.70;;
10503;SDS011;5299;48.704;9.138;2022-07-29T10:49:41;6.10;;;3.80;;
10503;SDS011;5299;48.704;9.138;2022-07-29T10:54:01;6.72;;;3.80;;
10503;SDS011;5299;48.704;9.138;2022-07-29T10:58:18;7.88;;;4.95;;
10503;SDS011;5299;48.704;9.138;2022-07-29T11:11:37;8.43;;;4.68;;
10503;SDS011;5299;48.704;9.138;2022-07-29T11:24:38;11.40;;;4.85;;
10503;SDS011;5299;48.704;9.138;2022-07-29T11:32:56;10.60;;;6.07;;
10503;SDS011;5299;48.704;9.138;2022-07-29T11:41:20;8.15;;;4.95;;
10503;SDS011;5299;48.704;9.138;2022-07-29T11:45:24;9.30;;;5.38;;
10503;SDS011;5299;48.704;9.138;2022-07-29T11:49:45;9.18;;;5.40;;
10503;SDS011;5299;48.704;9.138;2022-07-29T11:53:48;8.68;;;5.93;;
10503;SDS011;5299;48.704;9.138;2022-07-29T11:57:57;11.20;;;6.68;;
10503;SDS011;5299;48.704;9.138;2022-07-29T12:02:04;7.25;;;5.05;;
10503;SDS011;5299;48.704;9.138;2022-07-29T12:06:26;6.65;;;4.47;;
10503;SDS011;5299;48.704;9.138;2022-07-29T12:10:32;11.10;;;5.15;;
10503;SDS011;5299;48.704;9.138;2022-07-29T12:14:34;11.52;;;6.13;;
10503;SDS011;5299;48.704;9.138;2022-07-29T12:18:35;12.68;;;5.90;;
10503;SDS011;5299;48.704;9.138;2022-07-29T12:22:38;9.10;;;5.30;;
10503;SDS011;5299;48.704;9.138;2022-07-29T12:26:53;8.88;;;5.47;;
10503;SDS011;5299;48.704;9.138;2022-07-29T12:31:02;8.10;;;5.78;;
10503;SDS011;5299;48.704;9.138;2022-07-29T12:35:06;7.72;;;6.00;;
10503;SDS011;5299;48.704;9.138;2022-07-29T12:39:10;9.82;;;5.72;;
10503;SDS011;5299;48.704;9.138;2022-07-29T12:43:14;11.02;;;5.95;;
10503;SDS011;5299;48.704;9.138;2022-07-29T12:47:17;7.93;;;5.43;;
10503;SDS011;5299;48.704;9.138;2022-07-29T12:51:28;6.95;;;5.07;;
10503;SDS011;5299;48.704;9.138;2022-07-29T12:55:40;8.35;;;5.88;;
10503;SDS011;5299;48.704;9.138;2022-07-29T12:59:43;6.32;;;4.30;;
10503;SDS011;5299;48.704;9.138;2022-07-29T13:03:49;8.80;;;6.00;;
10503;SDS011;5299;48.704;9.138;2022-07-29T13:08:08;8.73;;;5.53;;
10503;SDS011;5299;48.704;9.138;2022-07-29T13:12:22;6.95;;;5.20;;
10503;SDS011;5299;48.704;9.138;2022-07-29T13:16:23;12.68;;;6.35;;
10503;SDS011;5299;48.704;9.138;2022-07-29T13:20:26;9.27;;;5.85;;
10503;SDS011;5299;48.704;9.138;2022-07-29T13:24:30;7.45;;;5.38;;
10503;SDS011;5299;48.704;9.138;2022-07-29T13:28:32;7.63;;;5.82;;
10503;SDS011;5299;48.704;9.138;2022-07-29T13:32:34;15.40;;;6.10;;
10503;SDS011;5299;48.704;9.138;2022-07-29T13:36:38;71.43;;;14.77;;
10503;SDS011;5299;48.704;9.138;2022-07-29T13:40:41;9.13;;;6.03;;
10503;SDS011;5299;48.704;9.138;2022-07-29T13:44:43;12.02;;;6.88;;
10503;SDS011;5299;48.704;9.138;2022-07-29T13:48:45;9.10;;;6.40;;
10503;SDS011;5299;48.704;9.138;2022-07-29T13:52:46;9.90;;;7.32;;
10503;SDS011;5299;48.704;9.138;2022-07-29T13:56:53;10.63;;;8.70;;
10503;SDS011;5299;48.704;9.138;2022-07-29T14:00:58;8.48;;;6.68;;
10503;SDS011;5299;48.704;9.138;2022-07-29T14:05:00;9.88;;;6.95;;
10503;SDS011;5299;48.704;9.138;2022-07-29T14:09:08;11.23;;;7.93;;
10503;SDS011;5299;48.704;9.138;2022-07-29T14:13:09;8.65;;;6.82;;
10503;SDS011;5299;48.704;9.138;2022-07-29T14:17:25;20.52;;;9.48;;
10503;SDS011;5299;48.704;9.138;2022-07-29T14:21:26;8.43;;;6.40;;
10503;SDS011;5299;48.704;9.138;2022-07-29T14:25:28;9.80;;;7.85;;
10503;SDS011;5299;48.704;9.138;2022-07-29T14:29:30;7.97;;;6.30;;
10503;SDS011;5299;48.704;9.138;2022-07-29T14:33:38;13.55;;;7.22;;
10503;SDS011;5299;48.704;9.138;2022-07-29T14:37:40;12.73;;;9.40;;
10503;SDS011;5299;48.704;9.138;2022-07-29T14:41:42;11.77;;;9.02;;
10503;SDS011;5299;48.704;9.138;2022-07-29T14:45:44;11.57;;;8.48;;
10503;SDS011;5299;48.704;9.138;2022-07-29T14:49:45;14.98;;;8.18;;
10503;SDS011;5299;48.704;9.138;2022-07-29T14:53:47;11.30;;;7.75;;
10503;SDS011;5299;48.704;9.138;2022-07-29T14:57:48;12.45;;;8.60;;
10503;SDS011;5299;48.704;9.138;2022-07-29T15:01:51;10.32;;;7.07;;
10503;SDS011;5299;48.704;9.138;2022-07-29T15:05:52;11.95;;;7.88;;
10503;SDS011;5299;48.704;9.138;2022-07-29T15:09:54;10.25;;;7.93;;
10503;SDS011;5299;48.704;9.138;2022-07-29T15:13:59;10.40;;;8.38;;
10503;SDS011;5299;48.704;9.138;2022-07-29T15:18:03;8.65;;;7.20;;
10503;SDS011;5299;48.704;9.138;2022-07-29T15:22:11;11.93;;;7.93;;
10503;SDS011;5299;48.704;9.138;2022-07-29T15:26:13;10.43;;;8.13;;
10503;SDS011;5299;48.704;9.138;2022-07-29T15:30:14;9.65;;;7.68;;
10503;SDS011;5299;48.704;9.138;2022-07-29T15:34:34;10.73;;;7.70;;
10503;SDS011;5299;48.704;9.138;2022-07-29T15:38:35;10.50;;;6.40;;
10503;SDS011;5299;48.704;9.138;2022-07-29T15:42:42;8.43;;;6.40;;
10503;SDS011;5299;48.704;9.138;2022-07-29T15:46:43;9.15;;;6.90;;
10503;SDS011;5299;48.704;9.138;2022-07-29T15:51:03;8.98;;;6.50;;
10503;SDS011;5299;48.704;9.138;2022-07-29T15:55:05;9.75;;;7.07;;
10503;SDS011;5299;48.704;9.138;2022-07-29T15:59:07;9.82;;;7.93;;
10503;SDS011;5299;48.704;9.138;2022-07-29T16:03:08;8.23;;;6.82;;
10503;SDS011;5299;48.704;9.138;2022-07-29T16:07:10;11.10;;;7.30;;
10503;SDS011;5299;48.704;9.138;2022-07-29T16:11:11;8.93;;;6.85;;
10503;SDS011;5299;48.704;9.138;2022-07-29T16:15:13;8.30;;;6.78;;
10503;SDS011;5299;48.704;9.138;2022-07-29T16:19:14;7.80;;;7.00;;
10503;SDS011;5299;48.704;9.138;2022-07-29T16:23:16;9.50;;;6.60;;
10503;SDS011;5299;48.704;9.138;2022-07-29T16:27:17;10.88;;;6.28;;
10503;SDS011;5299;48.704;9.138;2022-07-29T16:31:21;8.65;;;6.20;;
10503;SDS011;5299;48.704;9.138;2022-07-29T16:35:23;10.32;;;6.70;;
10503;SDS011;5299;48.704;9.138;2022-07-29T16:39:40;7.90;;;5.90;;
10503;SDS011;5299;48.704;9.138;2022-07-29T16:43:42;9.43;;;6.07;;
10503;SDS011;5299;48.704;9.138;2022-07-29T16:47:43;8.73;;;5.75;;
10503;SDS011;5299;48.704;9.138;2022-07-29T16:51:45;8.20;;;5.47;;
10503;SDS011;5299;48.704;9.138;2022-07-29T16:55:48;7.57;;;5.95;;
10503;SDS011;5299;48.704;9.138;2022-07-29T16:59:51;9.15;;;5.43;;
10503;SDS011;5299;48.704;9.138;2022-07-29T17:03:52;9.70;;;6.38;;
10503;SDS011;5299;48.704;9.138;2022-07-29T17:08:06;8.45;;;4.82;;
10503;SDS011;5299;48.704;9.138;2022-07-29T17:12:08;8.38;;;6.07;;
10503;SDS011;5299;48.704;9.138;2022-07-29T17:16:10;7.32;;;5.97;;
10503;SDS011;5299;48.704;9.138;2022-07-29T17:20:11;10.00;;;5.80;;
10503;SDS011;5299;48.704;9.138;2022-07-29T17:24:17;10.32;;;6.25;;
10503;SDS011;5299;48.704;9.138;2022-07-29T17:28:20;8.40;;;5.43;;
10503;SDS011;5299;48.704;9.138;2022-07-29T17:32:21;8.88;;;5.43;;
10503;SDS011;5299;48.704;9.138;2022-07-29T17:36:23;6.65;;;5.05;;
10503;SDS011;5299;48.704;9.138;2022-07-29T17:40:24;9.18;;;5.88;;
10503;SDS011;5299;48.704;9.138;2022-07-29T17:44:26;7.80;;;5.20;;
10503;SDS011;5299;48.704;9.138;2022-07-29T17:48:28;9.18;;;5.82;;
10503;SDS011;5299;48.704;9.138;2022-07-29T17:52:30;8.35;;;6.25;;
10503;SDS011;5299;48.704;9.138;2022-07-29T17:56:31;6.88;;;5.05;;
10503;SDS011;5299;48.704;9.138;2022-07-29T18:00:33;10.80;;;6.53;;
10503;SDS011;5299;48.704;9.138;2022-07-29T18:04:35;6.07;;;5.28;;
10503;SDS011;5299;48.704;9.138;2022-07-29T18:08:37;7.07;;;5.65;;
10503;SDS011;5299;48.704;9.138;2022-07-29T18:12:39;10.32;;;5.32;;
10503;SDS011;5299;48.704;9.138;2022-07-29T18:16:40;7.63;;;5.40;;
10503;SDS011;5299;48.704;9.138;2022-07-29T18:20:42;6.15;;;5.03;;
10503;SDS011;5299;48.704;9.138;2022-07-29T18:25:08;6.43;;;4.38;;
10503;SDS011;5299;48.704;9.138;2022-07-29T18:29:12;8.60;;;4.47;;
10503;SDS011;5299;48.704;9.138;2022-07-29T18:33:18;4.85;;;3.60;;
10503;SDS011;5299;48.704;9.138;2022-07-29T18:37:22;7.60;;;4.07;;
10503;SDS011;5299;48.704;9.138;2022-07-29T18:41:48;5.82;;;3.90;;
10503;SDS011;5299;48.704;9.138;2022-07-29T18:45:51;7.45;;;3.47;;
10503;SDS011;5299;48.704;9.138;2022-07-29T18:49:53;7.05;;;4.78;;
10503;SDS011;5299;48.704;9.138;2022-07-29T18:53:54;7.05;;;4.13;;
10503;SDS011;5299;48.704;9.138;2022-07-29T18:57:56;9.55;;;3.88;;
10503;SDS011;5299;48.704;9.138;2022-07-29T19:01:57;6.60;;;4.28;;
10503;SDS011;5299;48.704;9.138;2022-07-29T19:05:59;7.82;;;4.10;;
10503;SDS011;5299;48.704;9.138;2022-07-29T19:10:01;5.47;;;4.15;;
10503;SDS011;5299;48.704;9.138;2022-07-29T19:14:03;7.40;;;4.95;;
10503;SDS011;5299;48.704;9.138;2022-07-29T19:18:05;6.00;;;4.47;;
10503;SDS011;5299;48.704;9.138;2022-07-29T19:22:07;8.27;;;4.97;;
10503;SDS011;5299;48.704;9.138;2022-07-29T19:26:09;7.13;;;4.55;;
10503;SDS011;5299;48.704;9.138;2022-07-29T19:30:20;6.97;;;4.32;;
10503;SDS011;5299;48.704;9.138;2022-07-29T19:34:24;72.55;;;11.93;;
10503;SDS011;5299;48.704;9.138;2022-07-29T19:38:36;5.60;;;4.20;;
10503;SDS011;5299;48.704;9.138;2022-07-29T19:42:59;7.45;;;4.78;;
10503;SDS011;5299;48.704;9.138;2022-07-29T19:47:27;7.07;;;4.82;;
10503;SDS011;5299;48.704;9.138;2022-07-29T19:51:46;6.85;;;4.57;;
10503;SDS011;5299;48.704;9.138;2022-07-29T19:55:48;6.85;;;4.53;;
10503;SDS011;5299;48.704;9.138;2022-07-29T19:59:53;8.50;;;4.60;;
10503;SDS011;5299;48.704;9.138;2022-07-29T20:04:13;6.13;;;4.65;;
10503;SDS011;5299;48.704;9.138;2022-07-29T20:08:14;13.35;;;9.75;;
10503;SDS011;5299;48.704;9.138;2022-07-29T20:12:16;6.10;;;3.97;;
10503;SDS011;5299;48.704;9.138;2022-07-29T20:16:18;5.22;;;3.47;;
10503;SDS011;5299;48.704;9.138;2022-07-29T20:20:19;5.20;;;3.20;;
10503;SDS011;5299;48.704;9.138;2022-07-29T20:24:23;5.85;;;3.83;;
10503;SDS011;5299;48.704;9.138;2022-07-29T20:28:25;5.88;;;3.40;;
10503;SDS011;5299;48.704;9.138;2022-07-29T20:32:26;5.63;;;3.95;;
10503;SDS011;5299;48.704;9.138;2022-07-29T20:36:28;7.78;;;4.15;;
10503;SDS011;5299;48.704;9.138;2022-07-29T20:40:30;5.78;;;2.90;;
10503;SDS011;5299;48.704;9.138;2022-07-29T20:44:32;5.13;;;3.03;;
10503;SDS011;5299;48.704;9.138;2022-07-29T20:48:34;4.32;;;2.58;;
10503;SDS011;5299;48.704;9.138;2022-07-29T20:52:36;5.30;;;2.63;;
10503;SDS011;5299;48.704;9.138;2022-07-29T20:56:40;7.18;;;3.15;;
10503;SDS011;5299;48.704;9.138;2022-07-29T21:00:42;5.18;;;2.97;;
10503;SDS011;5299;48.704;9.138;2022-07-29T21:04:46;5.50;;;2.88;;
10503;SDS011;5299;48.704;9.138;2022-07-29T21:08:49;7.10;;;2.72;;
10503;SDS011;5299;48.704;9.138;2022-07-29T21:13:27;4.82;;;3.05;;
10503;SDS011;5299;48.704;9.138;2022-07-29T21:17:55;7.20;;;2.22;;
10503;SDS011;5299;48.704;9.138;2022-07-29T21:22:12;4.55;;;2.75;;
10503;SDS011;5299;48.704;9.138;2022-07-29T21:26:14;5.40;;;3.05;;
10503;SDS011;5299;48.704;9.138;2022-07-29T21:30:16;4.90;;;2.78;;
10503;SDS011;5299;48.704;9.138;2022-07-29T21:34:18;4.80;;;2.47;;
10503;SDS011;5299;48.704;9.138;2022-07-29T21:38:19;5.40;;;2.92;;
10503;SDS011;5299;48.704;9.138;2022-07-29T21:42:21;7.38;;;3.05;;
10503;SDS011;5299;48.704;9.138;2022-07-29T21:46:24;4.90;;;3.13;;
10503;SDS011;5299;48.704;9.138;2022-07-29T21:50:26;6.07;;;3.58;;
10503;SDS011;5299;48.704;9.138;2022-07-29T21:54:27;8.27;;;3.20;;
10503;SDS011;5299;48.704;9.138;2022-07-29T21:58:29;5.85;;;3.05;;
10503;SDS011;5299;48.704;9.138;2022-07-29T22:02:30;5.45;;;3.33;;
10503;SDS011;5299;48.704;9.138;2022-07-29T22:06:32;6.75;;;3.38;;
10503;SDS011;5299;48.704;9.138;2022-07-29T22:10:34;5.53;;;3.22;;
10503;SDS011;5299;48.704;9.138;2022-07-29T22:14:36;6.43;;;3.13;;
10503;SDS011;5299;48.704;9.138;2022-07-29T22:18:37;5.53;;;3.15;;
10503;SDS011;5299;48.704;9.138;2022-07-29T22:22:39;7.53;;;3.53;;
10503;SDS011;5299;48.704;9.138;2022-07-29T22:26:40;8.07;;;4.28;;
10503;SDS011;5299;48.704;9.138;2022-07-29T22:30:42;14.73;;;4.10;;
10503;SDS011;5299;48.704;9.138;2022-07-29T22:34:43;7.70;;;3.72;;
10503;SDS011;5299;48.704;9.138;2022-07-29T22:38:45;7.28;;;3.97;;
10503;SDS011;5299;48.704;9.138;2022-07-29T22:42:52;7.40;;;4.83;;
10503;SDS011;5299;48.704;9.138;2022-07-29T22:46:53;9.25;;;3.83;;
10503;SDS011;5299;48.704;9.138;2022-07-29T22:50:54;5.25;;;3.90;;
10503;SDS011;5299;48.704;9.138;2022-07-29T22:54:56;6.50;;;3.95;;
10503;SDS011;5299;48.704;9.138;2022-07-29T22:58:57;8.60;;;3.88;;
10503;SDS011;5299;48.704;9.138;2022-07-29T23:02:59;7.88;;;3.92;;
10503;SDS011;5299;48.704;9.138;2022-07-29T23:07:00;4.82;;;3.42;;
10503;SDS011;5299;48.704;9.138;2022-07-29T23:11:02;4.22;;;3.38;;
10503;SDS011;5299;48.704;9.138;2022-07-29T23:15:04;5.05;;;3.17;;
10503;SDS011;5299;48.704;9.138;2022-07-29T23:19:06;5.15;;;3.42;;
10503;SDS011;5299;48.704;9.138;2022-07-29T23:23:08;5.45;;;3.35;;
10503;SDS011;5299;48.704;9.138;2022-07-29T23:27:09;4.53;;;3.03;;
10503;SDS011;5299;48.704;9.138;2022-07-29T23:31:11;4.63;;;3.08;;
10503;SDS011;5299;48.704;9.138;2022-07-29T23:35:13;4.45;;;2.90;;
10503;SDS011;5299;48.704;9.138;2022-07-29T23:39:15;5.20;;;3.20;;
10503;SDS011;5299;48.704;9.138;2022-07-29T23:43:16;11.25;;;4.47;;
10503;SDS011;5299;48.704;9.138;2022-07-29T23:47:18;6.35;;;3.83;;
10503;SDS011;5299;48.704;9.138;2022-07-29T23:51:19;4.68;;;3.00;;
10503;SDS011;5299;48.704;9.138;2022-07-29T23:55:21;8.07;;;3.58;;
10503;SDS011;5299;48.704;9.138;2022-07-29T23:59:39;4.20;;;3.13;;
